createdAt,value
2017-12-13T00:00:45.771Z,93.63
2017-12-13T00:03:20.568Z,93.72
2017-12-13T00:05:55.160Z,93.93
2017-12-13T00:08:29.965Z,93.92
2017-12-13T00:11:04.620Z,93.96
2017-12-13T00:13:39.356Z,93.96
2017-12-13T00:16:14.431Z,94.01
2017-12-13T00:18:49.096Z,93.88
2017-12-13T00:21:24.020Z,93.95
2017-12-13T00:23:58.905Z,94.04
2017-12-13T00:26:33.452Z,94.20
2017-12-13T00:29:08.439Z,94.28
2017-12-13T00:31:43.373Z,94.29
2017-12-13T00:34:18.400Z,94.21
2017-12-13T00:36:53.124Z,94.31
2017-12-13T00:39:28.021Z,94.41
2017-12-13T00:42:02.776Z,94.40
2017-12-13T00:44:37.652Z,94.44
2017-12-13T00:47:12.480Z,94.45
2017-12-13T00:49:47.443Z,94.61
2017-12-13T00:52:22.296Z,94.55
2017-12-13T00:54:57.244Z,94.41
2017-12-13T00:57:31.891Z,94.46
2017-12-13T01:00:06.851Z,94.58
2017-12-13T01:02:41.600Z,94.57
2017-12-13T01:05:16.410Z,94.42
2017-12-13T01:07:51.232Z,94.25
2017-12-13T01:10:25.956Z,94.04
2017-12-13T01:13:00.689Z,94.34
2017-12-13T01:15:35.372Z,94.32
2017-12-13T01:18:10.144Z,94.14
2017-12-13T01:20:44.976Z,93.99
2017-12-13T01:23:19.784Z,94.01
2017-12-13T01:25:54.512Z,93.80
2017-12-13T01:28:29.357Z,93.64
2017-12-13T01:31:04.188Z,93.58
2017-12-13T01:33:38.916Z,93.60
2017-12-13T01:36:13.379Z,93.60
2017-12-13T01:38:48.450Z,93.67
2017-12-13T01:41:23.596Z,93.64
2017-12-13T01:43:58.524Z,93.77
2017-12-13T01:46:33.257Z,93.74
2017-12-13T01:49:08.232Z,93.88
2017-12-13T01:51:42.884Z,94.01
2017-12-13T01:54:17.611Z,94.08
2017-12-13T01:56:52.774Z,94.40
2017-12-13T01:59:27.671Z,94.55
2017-12-13T02:02:02.436Z,94.21
2017-12-13T02:04:36.828Z,94.20
2017-12-13T02:07:11.928Z,94.62
2017-12-13T02:09:46.835Z,94.70
2017-12-13T02:12:21.221Z,94.82
2017-12-13T02:14:56.163Z,94.82
2017-12-13T02:17:30.564Z,94.74
2017-12-13T02:20:05.165Z,94.67
2017-12-13T02:22:39.846Z,94.81
2017-12-13T02:25:14.877Z,94.69
2017-12-13T02:27:49.708Z,94.63
2017-12-13T02:30:24.480Z,94.41
2017-12-13T02:32:59.303Z,94.43
2017-12-13T02:35:34.136Z,94.69
2017-12-13T02:38:08.963Z,94.78
2017-12-13T02:40:54.984Z,94.57
2017-12-13T02:43:29.400Z,94.66
2017-12-13T02:46:04.103Z,94.98
2017-12-13T02:48:38.829Z,94.98
2017-12-13T02:51:13.532Z,94.79
2017-12-13T02:53:48.431Z,94.35
2017-12-13T02:56:23.004Z,94.20
2017-12-13T02:58:57.820Z,93.99
2017-12-13T03:01:32.912Z,94.06
2017-12-13T03:04:07.744Z,94.04
2017-12-13T03:06:42.588Z,94.23
2017-12-13T03:09:17.121Z,94.11
2017-12-13T03:11:52.435Z,94.09
2017-12-13T03:14:26.788Z,93.60
2017-12-13T03:17:01.875Z,93.49
2017-12-13T03:19:36.903Z,93.40
2017-12-13T03:22:11.532Z,93.44
2017-12-13T03:24:46.487Z,93.50
2017-12-13T03:27:21.484Z,93.24
2017-12-13T03:29:56.408Z,92.88
2017-12-13T03:32:31.020Z,92.79
2017-12-13T03:35:05.808Z,92.92
2017-12-13T03:37:40.576Z,93.03
2017-12-13T03:40:15.277Z,93.23
2017-12-13T03:42:50.091Z,93.15
2017-12-13T03:45:24.855Z,92.92
2017-12-13T03:47:59.640Z,92.84
2017-12-13T03:50:34.395Z,92.71
2017-12-13T03:53:09.211Z,92.88
2017-12-13T03:55:44.072Z,93.04
2017-12-13T03:58:18.944Z,92.69
2017-12-13T04:00:53.496Z,92.28
2017-12-13T04:03:28.532Z,92.29
2017-12-13T04:06:03.126Z,92.30
2017-12-13T04:08:37.989Z,92.14
2017-12-13T04:11:12.712Z,92.13
2017-12-13T04:13:47.332Z,92.13
2017-12-13T04:16:22.091Z,92.24
2017-12-13T04:18:56.923Z,92.15
2017-12-13T04:21:31.392Z,91.94
2017-12-13T04:24:06.337Z,91.61
2017-12-13T04:26:41.277Z,91.40
2017-12-13T04:29:16.105Z,91.52
2017-12-13T04:31:50.852Z,91.40
2017-12-13T04:34:25.660Z,91.22
2017-12-13T04:37:00.392Z,90.92
2017-12-13T04:39:35.016Z,90.83
2017-12-13T04:42:09.840Z,90.87
2017-12-13T04:44:44.547Z,90.72
2017-12-13T04:47:19.308Z,90.29
2017-12-13T04:49:54.136Z,90.24
2017-12-13T04:52:28.880Z,90.38
2017-12-13T04:55:03.798Z,90.12
2017-12-13T04:57:38.542Z,89.71
2017-12-13T05:00:12.908Z,89.45
2017-12-13T05:02:47.945Z,88.91
2017-12-13T05:05:22.876Z,88.68
2017-12-13T05:07:57.671Z,88.29
2017-12-13T05:10:32.073Z,88.12
2017-12-13T05:13:06.856Z,87.95
2017-12-13T05:15:41.757Z,87.86
2017-12-13T05:18:16.354Z,87.74
2017-12-13T05:20:51.407Z,87.67
2017-12-13T05:23:26.236Z,87.47
2017-12-13T05:26:00.950Z,87.31
2017-12-13T05:28:35.804Z,86.82
2017-12-13T05:31:10.524Z,86.77
2017-12-13T05:33:45.490Z,86.58
2017-12-13T05:36:20.277Z,86.36
2017-12-13T05:38:55.108Z,86.11
2017-12-13T05:41:29.737Z,86.26
2017-12-13T05:44:04.160Z,86.31
2017-12-13T05:46:39.196Z,86.23
2017-12-13T05:49:13.968Z,86.08
2017-12-13T05:51:50.422Z,86.01
2017-12-13T05:54:25.732Z,85.83
2017-12-13T05:57:00.432Z,85.64
2017-12-13T05:59:35.260Z,85.52
2017-12-13T06:02:10.004Z,85.43
2017-12-13T06:04:44.765Z,85.79
2017-12-13T06:07:19.476Z,85.35
2017-12-13T06:09:54.444Z,85.67
2017-12-13T06:12:29.395Z,85.83
2017-12-13T06:15:04.109Z,86.21
2017-12-13T06:17:39.012Z,86.66
2017-12-13T06:20:13.660Z,86.34
2017-12-13T06:22:48.388Z,86.00
2017-12-13T06:25:23.240Z,85.97
2017-12-13T06:27:58.145Z,86.08
2017-12-13T06:30:33.076Z,86.26
2017-12-13T06:33:08.095Z,86.24
2017-12-13T06:35:42.414Z,86.03
2017-12-13T06:38:16.874Z,86.35
2017-12-13T06:40:51.712Z,86.77
2017-12-13T06:43:26.683Z,86.64
2017-12-13T06:46:01.692Z,86.15
2017-12-13T06:48:36.671Z,86.40
2017-12-13T06:51:11.504Z,86.75
2017-12-13T06:53:46.144Z,87.12
2017-12-13T06:56:20.984Z,87.28
2017-12-13T06:58:55.907Z,87.41
2017-12-13T07:01:30.551Z,87.80
2017-12-13T07:04:05.283Z,87.83
2017-12-13T07:06:40.037Z,87.38
2017-12-13T07:09:14.740Z,87.46
2017-12-13T07:11:49.820Z,87.74
2017-12-13T07:14:24.176Z,87.48
2017-12-13T07:16:59.055Z,86.99
2017-12-13T07:19:33.849Z,87.26
2017-12-13T07:22:08.492Z,87.67
2017-12-13T07:24:43.213Z,87.56
2017-12-13T07:27:17.573Z,87.15
2017-12-13T07:29:52.128Z,87.37
2017-12-13T07:32:27.161Z,87.87
2017-12-13T07:35:01.917Z,87.41
2017-12-13T07:37:36.736Z,87.14
2017-12-13T07:40:11.491Z,86.81
2017-12-13T07:42:45.840Z,87.33
2017-12-13T07:45:20.572Z,87.21
2017-12-13T07:47:55.455Z,87.03
2017-12-13T07:50:30.200Z,86.76
2017-12-13T07:53:04.556Z,86.93
2017-12-13T07:55:39.373Z,87.08
2017-12-13T07:58:14.345Z,87.13
2017-12-13T08:00:48.987Z,86.82
2017-12-13T08:03:23.852Z,86.98
2017-12-13T08:05:58.544Z,86.70
2017-12-13T08:08:33.295Z,86.88
2017-12-13T08:11:08.224Z,87.08
2017-12-13T08:13:42.903Z,87.25
2017-12-13T08:16:17.721Z,87.29
2017-12-13T08:18:52.586Z,87.40
2017-12-13T08:21:27.221Z,87.14
2017-12-13T08:24:01.944Z,87.39
2017-12-13T08:26:36.676Z,87.60
2017-12-13T08:29:11.401Z,87.58
2017-12-13T08:31:46.099Z,87.35
2017-12-13T08:34:20.912Z,87.03
2017-12-13T08:36:55.612Z,87.17
2017-12-13T08:39:30.540Z,87.00
2017-12-13T08:42:05.272Z,86.92
2017-12-13T08:44:40.220Z,87.00
2017-12-13T08:47:14.597Z,86.92
2017-12-13T08:49:49.757Z,86.68
2017-12-13T08:52:24.504Z,86.67
2017-12-13T08:54:58.982Z,86.14
2017-12-13T08:57:33.988Z,85.69
2017-12-13T09:00:08.793Z,85.23
2017-12-13T09:02:43.539Z,84.85
2017-12-13T09:05:18.372Z,85.07
2017-12-13T09:07:53.299Z,85.02
2017-12-13T09:10:28.077Z,85.17
2017-12-13T09:13:02.852Z,85.50
2017-12-13T09:15:37.627Z,85.53
2017-12-13T09:18:12.815Z,85.00
2017-12-13T09:20:47.384Z,84.89
2017-12-13T09:23:22.364Z,84.80
2017-12-13T09:25:56.596Z,84.77
2017-12-13T09:28:31.197Z,85.21
2017-12-13T09:31:06.281Z,84.98
2017-12-13T09:33:41.057Z,85.01
2017-12-13T09:36:15.889Z,85.17
2017-12-13T09:38:50.488Z,85.13
2017-12-13T09:41:25.467Z,85.10
2017-12-13T09:44:00.288Z,84.82
2017-12-13T09:46:35.072Z,84.88
2017-12-13T09:49:09.500Z,84.53
2017-12-13T09:51:44.553Z,84.56
2017-12-13T09:54:19.260Z,84.93
2017-12-13T09:56:53.985Z,85.28
2017-12-13T09:59:28.441Z,85.49
2017-12-13T10:02:03.657Z,86.05
2017-12-13T10:04:38.097Z,86.55
2017-12-13T10:07:12.911Z,87.33
2017-12-13T10:09:47.527Z,88.28
2017-12-13T10:12:22.476Z,89.27
2017-12-13T10:14:57.252Z,89.97
2017-12-13T10:17:32.155Z,90.75
2017-12-13T10:20:06.856Z,91.45
2017-12-13T10:22:41.836Z,91.75
2017-12-13T10:25:16.744Z,92.08
2017-12-13T10:27:51.539Z,92.11
2017-12-13T10:30:26.244Z,92.29
2017-12-13T10:33:01.073Z,92.36
2017-12-13T10:35:35.520Z,92.46
2017-12-13T10:38:10.420Z,92.68
2017-12-13T10:40:45.117Z,92.42
2017-12-13T10:43:19.876Z,92.51
2017-12-13T10:45:54.671Z,92.19
2017-12-13T10:48:29.416Z,91.64
2017-12-13T10:51:04.127Z,91.67
2017-12-13T10:53:38.912Z,91.85
2017-12-13T10:56:13.796Z,91.64
2017-12-13T10:58:48.092Z,91.43
2017-12-13T11:01:22.719Z,91.19
2017-12-13T11:03:57.701Z,91.24
2017-12-13T11:06:32.176Z,91.46
2017-12-13T11:09:06.750Z,91.48
2017-12-13T11:11:41.679Z,91.40
2017-12-13T11:14:16.286Z,91.46
2017-12-13T11:16:51.260Z,92.16
2017-12-13T11:19:26.187Z,92.47
2017-12-13T11:22:00.544Z,92.87
2017-12-13T11:24:35.629Z,93.14
2017-12-13T11:27:10.116Z,93.62
2017-12-13T11:29:44.797Z,93.68
2017-12-13T11:32:19.727Z,93.76
2017-12-13T11:34:54.008Z,94.01
2017-12-13T11:37:29.164Z,94.19
2017-12-13T11:40:04.018Z,94.25
2017-12-13T11:42:38.916Z,94.32
2017-12-13T11:45:13.544Z,94.64
2017-12-13T11:47:48.889Z,94.83
2017-12-13T11:50:23.324Z,95.06
2017-12-13T11:52:58.160Z,95.01
2017-12-13T11:55:32.867Z,95.08
2017-12-13T11:58:07.596Z,95.57
2017-12-13T12:00:42.212Z,95.88
2017-12-13T12:03:16.640Z,96.53
2017-12-13T12:05:51.647Z,96.75
2017-12-13T12:08:26.203Z,96.57
2017-12-13T12:11:01.261Z,96.57
2017-12-13T12:13:36.104Z,97.01
2017-12-13T12:16:11.008Z,97.54
2017-12-13T12:18:45.740Z,97.67
2017-12-13T12:21:20.456Z,97.75
2017-12-13T12:23:55.493Z,97.47
2017-12-13T12:26:30.000Z,97.62
2017-12-13T12:29:04.587Z,97.80
2017-12-13T12:31:39.309Z,98.04
2017-12-13T12:34:14.310Z,98.13
2017-12-13T12:36:48.755Z,98.02
2017-12-13T12:39:23.925Z,98.21
2017-12-13T12:41:58.982Z,98.49
2017-12-13T12:44:33.668Z,98.74
2017-12-13T12:47:08.376Z,98.90
2017-12-13T12:49:43.356Z,98.79
2017-12-13T12:52:18.032Z,98.67
2017-12-13T12:54:52.827Z,98.81
2017-12-13T12:57:27.533Z,99.03
2017-12-13T13:00:02.212Z,99.16
2017-12-13T13:02:36.949Z,99.30
2017-12-13T13:05:11.771Z,99.46
2017-12-13T13:07:46.728Z,99.67
2017-12-13T13:10:21.634Z,99.94
2017-12-13T13:12:56.588Z,100.00
2017-12-13T13:15:31.075Z,100.00
2017-12-13T13:18:05.931Z,100.00
2017-12-13T13:20:40.540Z,100.00
2017-12-13T13:23:15.165Z,100.00
2017-12-13T13:25:50.200Z,100.00
2017-12-13T13:28:25.047Z,100.00
2017-12-13T13:30:59.349Z,100.00
2017-12-13T13:33:34.312Z,100.00
2017-12-13T13:36:09.022Z,100.00
2017-12-13T13:38:43.768Z,100.00
2017-12-13T13:41:18.568Z,100.00
2017-12-13T13:43:53.449Z,100.00
2017-12-13T13:46:28.351Z,100.00
2017-12-13T13:49:03.099Z,100.00
2017-12-13T13:51:37.915Z,100.00
2017-12-13T13:54:12.679Z,100.00
2017-12-13T13:56:47.595Z,100.00
2017-12-13T13:59:22.612Z,100.00
2017-12-13T14:01:57.449Z,100.00
2017-12-13T14:04:32.403Z,100.00
2017-12-13T14:07:07.103Z,100.00
2017-12-13T14:09:41.773Z,100.00
2017-12-13T14:12:16.560Z,100.00
2017-12-13T14:14:51.394Z,100.00
2017-12-13T14:17:26.222Z,100.00
2017-12-13T14:20:00.964Z,99.79
2017-12-13T14:22:35.484Z,99.60
2017-12-13T14:25:10.545Z,99.42
2017-12-13T14:27:45.216Z,99.09
2017-12-13T14:30:20.024Z,99.09
2017-12-13T14:32:54.700Z,98.58
2017-12-13T14:35:29.328Z,98.28
2017-12-13T14:38:04.056Z,98.24
2017-12-13T14:40:38.760Z,98.03
2017-12-13T14:43:13.636Z,98.04
2017-12-13T14:45:48.396Z,98.06
2017-12-13T14:48:23.421Z,97.77
2017-12-13T14:50:58.325Z,97.61
2017-12-13T14:53:33.123Z,97.67
2017-12-13T14:56:07.891Z,97.80
2017-12-13T14:58:42.660Z,97.66
2017-12-13T15:01:17.392Z,97.67
2017-12-13T15:03:51.965Z,98.06
2017-12-13T15:06:26.718Z,98.14
2017-12-13T15:09:01.524Z,98.23
2017-12-13T15:11:36.356Z,98.34
2017-12-13T15:14:11.329Z,98.33
2017-12-13T15:16:46.228Z,98.33
2017-12-13T15:19:21.057Z,98.25
2017-12-13T15:21:55.872Z,98.31
2017-12-13T15:24:30.442Z,98.40
2017-12-13T15:27:05.200Z,98.36
2017-12-13T15:29:39.924Z,98.49
2017-12-13T15:32:14.707Z,98.77
2017-12-13T15:34:49.428Z,99.12
2017-12-13T15:37:24.156Z,99.32
2017-12-13T15:39:59.032Z,99.48
2017-12-13T15:42:34.069Z,99.61
2017-12-13T15:45:08.944Z,99.54
2017-12-13T15:47:43.607Z,99.60
2017-12-13T15:50:18.297Z,99.64
2017-12-13T15:52:52.664Z,99.69
2017-12-13T15:55:27.853Z,99.66
2017-12-13T15:58:02.296Z,99.71
2017-12-13T16:00:37.308Z,99.76
2017-12-13T16:03:11.815Z,99.75
2017-12-13T16:05:46.796Z,99.63
2017-12-13T16:08:21.521Z,99.25
2017-12-13T16:10:56.208Z,99.26
2017-12-13T16:13:31.060Z,99.12
2017-12-13T16:16:05.745Z,99.17
2017-12-13T16:18:40.736Z,99.06
2017-12-13T16:21:15.701Z,99.06
2017-12-13T16:23:50.499Z,98.97
2017-12-13T16:26:25.362Z,99.01
2017-12-13T16:28:59.988Z,98.87
2017-12-13T16:31:34.749Z,98.80
2017-12-13T16:34:09.505Z,98.97
2017-12-13T16:36:43.822Z,98.80
2017-12-13T16:39:18.220Z,98.73
2017-12-13T16:41:53.101Z,98.80
2017-12-13T16:44:27.588Z,98.81
2017-12-13T16:47:02.545Z,98.76
2017-12-13T16:49:37.490Z,98.91
2017-12-13T16:52:11.561Z,98.92
2017-12-13T16:54:46.521Z,98.80
2017-12-13T16:57:21.477Z,98.60
2017-12-13T16:59:56.155Z,98.65
2017-12-13T17:02:30.945Z,98.65
2017-12-13T17:05:05.723Z,98.51
2017-12-13T17:07:40.583Z,98.42
2017-12-13T17:10:15.072Z,98.19
2017-12-13T17:12:49.678Z,98.33
2017-12-13T17:15:24.565Z,98.47
2017-12-13T17:17:59.400Z,98.35
2017-12-13T17:20:34.134Z,98.42
2017-12-13T17:23:09.068Z,98.39
2017-12-13T17:25:43.728Z,98.33
2017-12-13T17:28:18.828Z,98.37
2017-12-13T17:30:52.868Z,98.55
2017-12-13T17:33:27.889Z,98.66
2017-12-13T17:36:02.888Z,98.68
2017-12-13T17:38:38.101Z,98.75
2017-12-13T17:41:12.696Z,98.91
2017-12-13T17:43:47.505Z,98.94
2017-12-13T17:46:21.774Z,98.88
2017-12-13T17:48:56.616Z,98.83
2017-12-13T17:51:31.083Z,98.83
2017-12-13T17:54:06.108Z,98.78
2017-12-13T17:56:40.861Z,98.77
2017-12-13T17:59:15.285Z,98.84
2017-12-13T18:01:50.980Z,98.75
2017-12-13T18:04:26.081Z,98.71
2017-12-13T18:07:00.659Z,98.69
2017-12-13T18:09:35.716Z,98.60
2017-12-13T18:12:10.540Z,98.52
2017-12-13T18:14:45.164Z,98.27
2017-12-13T18:17:19.931Z,98.24
2017-12-13T18:19:54.715Z,98.07
2017-12-13T18:22:29.494Z,97.81
2017-12-13T18:25:03.976Z,97.74
2017-12-13T18:27:39.002Z,97.60
2017-12-13T18:30:13.829Z,97.49
2017-12-13T18:32:48.759Z,97.19
2017-12-13T18:35:23.509Z,97.15
2017-12-13T18:37:58.356Z,97.19
2017-12-13T18:40:33.168Z,96.90
2017-12-13T18:43:07.996Z,96.74
2017-12-13T18:45:42.412Z,96.49
2017-12-13T18:48:17.565Z,96.46
2017-12-13T18:50:52.376Z,96.49
2017-12-13T18:53:26.825Z,96.48
2017-12-13T18:56:01.680Z,96.51
2017-12-13T18:58:36.246Z,96.46
2017-12-13T19:01:10.957Z,96.52
2017-12-13T19:03:45.512Z,96.58
2017-12-13T19:06:20.701Z,96.43
2017-12-13T19:08:55.045Z,96.55
2017-12-13T19:11:29.906Z,96.68
2017-12-13T19:14:04.830Z,96.81
2017-12-13T19:16:39.152Z,96.66
2017-12-13T19:19:14.145Z,96.36
2017-12-13T19:21:48.624Z,96.35
2017-12-13T19:24:23.620Z,96.45
2017-12-13T19:26:58.485Z,96.32
2017-12-13T19:29:33.189Z,96.25
2017-12-13T19:32:07.908Z,96.21
2017-12-13T19:34:42.659Z,96.31
2017-12-13T19:37:17.417Z,95.86
2017-12-13T19:39:51.844Z,95.83
2017-12-13T19:42:26.896Z,95.85
2017-12-13T19:45:01.596Z,95.71
2017-12-13T19:47:36.372Z,95.83
2017-12-13T19:50:11.148Z,95.51
2017-12-13T19:52:45.960Z,95.04
2017-12-13T19:55:20.742Z,95.17
2017-12-13T19:57:55.836Z,95.21
2017-12-13T20:00:30.493Z,95.31
2017-12-13T20:03:05.205Z,95.24
2017-12-13T20:05:40.040Z,95.24
2017-12-13T20:08:14.666Z,95.23
2017-12-13T20:10:49.476Z,95.21
2017-12-13T20:13:24.216Z,95.44
2017-12-13T20:15:59.029Z,95.58
2017-12-13T20:18:33.741Z,95.72
2017-12-13T20:21:08.526Z,95.91
2017-12-13T20:23:43.218Z,96.42
2017-12-13T20:26:18.005Z,96.66
2017-12-13T20:28:53.101Z,97.16
2017-12-13T20:31:27.637Z,97.45
2017-12-13T20:34:02.438Z,97.46
2017-12-13T20:36:37.140Z,97.59
2017-12-13T20:39:12.013Z,97.53
2017-12-13T20:41:46.729Z,97.43
2017-12-13T20:44:21.473Z,97.63
2017-12-13T20:46:56.169Z,97.54
2017-12-13T20:49:30.988Z,97.56
2017-12-13T20:52:05.720Z,97.51
2017-12-13T20:54:40.492Z,97.45
2017-12-13T20:57:15.436Z,97.51
2017-12-13T20:59:50.360Z,97.33
2017-12-13T21:02:25.173Z,97.37
2017-12-13T21:05:00.026Z,97.43
2017-12-13T21:07:34.747Z,97.46
2017-12-13T21:10:09.173Z,97.72
2017-12-13T21:12:43.985Z,97.95
2017-12-13T21:15:18.919Z,97.81
2017-12-13T21:17:53.747Z,97.82
2017-12-13T21:20:28.289Z,97.92
2017-12-13T21:23:02.937Z,98.16
2017-12-13T21:25:37.542Z,97.81
2017-12-13T21:28:12.267Z,97.67
2017-12-13T21:30:46.941Z,98.07
2017-12-13T21:33:22.042Z,98.00
2017-12-13T21:35:56.832Z,98.18
2017-12-13T21:38:31.684Z,98.40
2017-12-13T21:41:06.383Z,98.49
2017-12-13T21:43:41.201Z,98.64
2017-12-13T21:46:16.129Z,98.82
2017-12-13T21:48:50.636Z,98.64
2017-12-13T21:51:25.378Z,98.17
2017-12-13T21:54:00.152Z,98.24
2017-12-13T21:56:34.793Z,98.33
2017-12-13T21:59:09.513Z,98.62
2017-12-13T22:01:44.264Z,98.90
2017-12-13T22:04:19.036Z,98.97
2017-12-13T22:06:53.922Z,99.24
2017-12-13T22:09:28.869Z,99.45
2017-12-13T22:12:03.728Z,99.78
2017-12-13T22:14:38.524Z,99.73
2017-12-13T22:17:13.467Z,100.00
2017-12-13T22:19:48.409Z,100.00
2017-12-13T22:22:23.117Z,100.00
2017-12-13T22:24:57.924Z,100.00
2017-12-13T22:27:32.753Z,100.00
2017-12-13T22:30:07.676Z,100.00
2017-12-13T22:32:42.747Z,100.00
2017-12-13T22:35:17.361Z,100.00
2017-12-13T22:37:52.120Z,100.00
2017-12-13T22:40:26.513Z,100.00
2017-12-13T22:43:01.108Z,100.00
2017-12-13T22:45:35.969Z,100.00
2017-12-13T22:48:10.768Z,99.97
2017-12-13T22:50:45.517Z,99.14
2017-12-13T22:53:20.224Z,98.93
2017-12-13T22:55:55.028Z,98.72
2017-12-13T22:58:29.980Z,98.29
2017-12-13T23:01:04.711Z,98.35
2017-12-13T23:03:39.523Z,98.33
2017-12-13T23:06:14.188Z,98.56
2017-12-13T23:08:48.924Z,98.81
2017-12-13T23:11:23.421Z,98.83
2017-12-13T23:13:58.329Z,98.97
2017-12-13T23:16:33.235Z,99.15
2017-12-13T23:19:07.956Z,99.22
2017-12-13T23:21:42.960Z,99.14
2017-12-13T23:24:18.069Z,99.32
2017-12-13T23:26:52.684Z,99.30
2017-12-13T23:29:27.104Z,99.29
2017-12-13T23:32:02.117Z,99.32
2017-12-13T23:34:36.926Z,99.29
2017-12-13T23:37:11.768Z,99.32
2017-12-13T23:39:46.221Z,99.47
2017-12-13T23:42:21.409Z,99.51
2017-12-13T23:44:55.996Z,99.72
2017-12-13T23:47:30.728Z,99.78
2017-12-13T23:50:05.365Z,99.90
2017-12-13T23:52:40.161Z,99.98
2017-12-13T23:55:14.865Z,99.98
2017-12-13T23:57:49.608Z,100.00
